sensor_id;sensor_type;location;lat;lon;timestamp;temperature;humidity
47779;DHT22;33538;48.432;11.350;2023-02-15T00:01:05;0.90;99.90
47779;DHT22;33538;48.432;11.350;2023-02-15T00:03:32;0.90;99.90
47779;DHT22;33538;48.432;11.350;2023-02-15T00:05:59;0.90;99.90
47779;DHT22;33538;48.432;11.350;2023-02-15T00:08:26;0.90;99.90
47779;DHT22;33538;48.432;11.350;2023-02-15T00:10:53;0.80;99.90
47779;DHT22;33538;48.432;11.350;2023-02-15T00:13:20;0.80;99.90
47779;DHT22;33538;48.432;11.350;2023-02-15T00:15:48;0.80;99.90
47779;DHT22;33538;48.432;11.350;2023-02-15T00:18:14;0.80;99.90
47779;DHT22;33538;48.432;11.350;2023-02-15T00:20:41;0.80;99.90
47779;DHT22;33538;48.432;11.350;2023-02-15T00:23:08;0.90;99.90
47779;DHT22;33538;48.432;11.350;2023-02-15T00:25:34;0.90;99.90
47779;DHT22;33538;48.432;11.350;2023-02-15T00:28:01;0.90;99.90
47779;DHT22;33538;48.432;11.350;2023-02-15T00:30:28;0.80;99.90
47779;DHT22;33538;48.432;11.350;2023-02-15T00:32:56;0.90;99.90
47779;DHT22;33538;48.432;11.350;2023-02-15T00:35:23;0.80;99.90
47779;DHT22;33538;48.432;11.350;2023-02-15T00:37:50;0.80;99.90
47779;DHT22;33538;48.432;11.350;2023-02-15T00:40:17;0.90;99.90
47779;DHT22;33538;48.432;11.350;2023-02-15T00:42:43;0.90;99.90
47779;DHT22;33538;48.432;11.350;2023-02-15T00:45:10;0.90;99.90
47779;DHT22;33538;48.432;11.350;2023-02-15T00:47:37;0.90;99.90
47779;DHT22;33538;48.432;11.350;2023-02-15T00:50:06;0.90;99.90
47779;DHT22;33538;48.432;11.350;2023-02-15T00:52:33;0.90;99.90
47779;DHT22;33538;48.432;11.350;2023-02-15T00:55:00;0.80;99.90
47779;DHT22;33538;48.432;11.350;2023-02-15T00:57:26;0.80;99.90
47779;DHT22;33538;48.432;11.350;2023-02-15T00:59:53;0.80;99.90
47779;DHT22;33538;48.432;11.350;2023-02-15T01:02:20;0.80;99.90
47779;DHT22;33538;48.432;11.350;2023-02-15T01:04:46;0.80;99.90
47779;DHT22;33538;48.432;11.350;2023-02-15T01:07:14;0.80;99.90
47779;DHT22;33538;48.432;11.350;2023-02-15T01:09:41;0.80;99.90
47779;DHT22;33538;48.432;11.350;2023-02-15T01:12:08;0.80;99.90
47779;DHT22;33538;48.432;11.350;2023-02-15T01:14:35;0.80;99.90
47779;DHT22;33538;48.432;11.350;2023-02-15T01:17:01;0.80;99.90
47779;DHT22;33538;48.432;11.350;2023-02-15T01:19:28;0.80;99.90
47779;DHT22;33538;48.432;11.350;2023-02-15T01:21:55;0.70;99.90
47779;DHT22;33538;48.432;11.350;2023-02-15T01:24:23;0.70;99.90
47779;DHT22;33538;48.432;11.350;2023-02-15T01:26:50;0.70;99.90
47779;DHT22;33538;48.432;11.350;2023-02-15T01:29:16;0.60;99.90
47779;DHT22;33538;48.432;11.350;2023-02-15T01:31:43;0.60;99.90
47779;DHT22;33538;48.432;11.350;2023-02-15T01:34:10;0.70;99.90
47779;DHT22;33538;48.432;11.350;2023-02-15T01:36:37;0.70;99.90
47779;DHT22;33538;48.432;11.350;2023-02-15T01:39:03;0.70;99.90
47779;DHT22;33538;48.432;11.350;2023-02-15T01:41:31;0.60;99.90
47779;DHT22;33538;48.432;11.350;2023-02-15T01:44:00;0.70;99.90
47779;DHT22;33538;48.432;11.350;2023-02-15T01:46:31;0.70;99.90
47779;DHT22;33538;48.432;11.350;2023-02-15T01:49:03;0.60;99.90
47779;DHT22;33538;48.432;11.350;2023-02-15T01:51:33;0.60;99.90
47779;DHT22;33538;48.432;11.350;2023-02-15T01:54:05;0.60;99.90
47779;DHT22;33538;48.432;11.350;2023-02-15T01:56:35;0.60;99.90
47779;DHT22;33538;48.432;11.350;2023-02-15T01:59:05;0.60;99.90
47779;DHT22;33538;48.432;11.350;2023-02-15T02:01:32;0.60;99.90
47779;DHT22;33538;48.432;11.350;2023-02-15T02:04:05;0.60;99.90
47779;DHT22;33538;48.432;11.350;2023-02-15T02:06:35;0.60;99.90
47779;DHT22;33538;48.432;11.350;2023-02-15T02:09:02;0.60;99.90
47779;DHT22;33538;48.432;11.350;2023-02-15T02:11:29;0.60;99.90
47779;DHT22;33538;48.432;11.350;2023-02-15T02:13:58;0.60;99.90
47779;DHT22;33538;48.432;11.350;2023-02-15T02:16:28;0.60;99.90
47779;DHT22;33538;48.432;11.350;2023-02-15T02:19:05;0.60;99.90
47779;DHT22;33538;48.432;11.350;2023-02-15T02:24:52;0.60;99.90
47779;DHT22;33538;48.432;11.350;2023-02-15T02:27:32;0.60;99.90
47779;DHT22;33538;48.432;11.350;2023-02-15T02:30:39;0.60;99.90
47779;DHT22;33538;48.432;11.350;2023-02-15T02:36:06;0.60;99.90
47779;DHT22;33538;48.432;11.350;2023-02-15T02:38:46;0.60;99.90
47779;DHT22;33538;48.432;11.350;2023-02-15T02:41:20;0.70;99.90
47779;DHT22;33538;48.432;11.350;2023-02-15T02:43:56;0.70;99.90
47779;DHT22;33538;48.432;11.350;2023-02-15T02:46:30;0.70;99.90
47779;DHT22;33538;48.432;11.350;2023-02-15T02:48:59;0.60;99.90
47779;DHT22;33538;48.432;11.350;2023-02-15T02:51:27;0.60;99.90
47779;DHT22;33538;48.432;11.350;2023-02-15T02:53:55;0.60;99.90
47779;DHT22;33538;48.432;11.350;2023-02-15T02:56:29;0.60;99.90
47779;DHT22;33538;48.432;11.350;2023-02-15T02:59:00;0.60;99.90
47779;DHT22;33538;48.432;11.350;2023-02-15T03:01:32;0.60;99.90
47779;DHT22;33538;48.432;11.350;2023-02-15T03:04:05;0.70;99.90
47779;DHT22;33538;48.432;11.350;2023-02-15T03:06:39;0.70;99.90
47779;DHT22;33538;48.432;11.350;2023-02-15T03:09:10;0.70;99.90
47779;DHT22;33538;48.432;11.350;2023-02-15T03:11:38;0.70;99.90
47779;DHT22;33538;48.432;11.350;2023-02-15T03:14:04;0.70;99.90
47779;DHT22;33538;48.432;11.350;2023-02-15T03:16:31;0.70;99.90
47779;DHT22;33538;48.432;11.350;2023-02-15T03:19:05;0.70;99.90
47779;DHT22;33538;48.432;11.350;2023-02-15T03:21:35;0.70;99.90
47779;DHT22;33538;48.432;11.350;2023-02-15T03:24:08;0.70;99.90
47779;DHT22;33538;48.432;11.350;2023-02-15T03:26:37;0.60;99.90
47779;DHT22;33538;48.432;11.350;2023-02-15T03:29:06;0.60;99.90
47779;DHT22;33538;48.432;11.350;2023-02-15T03:31:37;0.60;99.90
47779;DHT22;33538;48.432;11.350;2023-02-15T03:34:10;0.60;99.90
47779;DHT22;33538;48.432;11.350;2023-02-15T03:36:43;0.60;99.90
47779;DHT22;33538;48.432;11.350;2023-02-15T03:39:18;0.60;99.90
47779;DHT22;33538;48.432;11.350;2023-02-15T03:41:55;0.60;99.90
47779;DHT22;33538;48.432;11.350;2023-02-15T03:44:27;0.60;99.90
47779;DHT22;33538;48.432;11.350;2023-02-15T03:46:58;0.60;99.90
47779;DHT22;33538;48.432;11.350;2023-02-15T03:49:37;0.60;99.90
47779;DHT22;33538;48.432;11.350;2023-02-15T03:52:07;0.60;99.90
47779;DHT22;33538;48.432;11.350;2023-02-15T03:54:35;0.60;99.90
47779;DHT22;33538;48.432;11.350;2023-02-15T03:57:03;0.50;99.90
47779;DHT22;33538;48.432;11.350;2023-02-15T03:59:30;0.50;99.90
47779;DHT22;33538;48.432;11.350;2023-02-15T04:02:04;0.50;99.90
47779;DHT22;33538;48.432;11.350;2023-02-15T04:04:38;0.50;99.90
47779;DHT22;33538;48.432;11.350;2023-02-15T04:07:07;0.50;99.90
47779;DHT22;33538;48.432;11.350;2023-02-15T04:09:34;0.50;99.90
47779;DHT22;33538;48.432;11.350;2023-02-15T04:12:01;0.50;99.90
47779;DHT22;33538;48.432;11.350;2023-02-15T04:14:28;0.50;99.90
47779;DHT22;33538;48.432;11.350;2023-02-15T04:16:54;0.50;99.90
47779;DHT22;33538;48.432;11.350;2023-02-15T04:19:21;0.50;99.90
47779;DHT22;33538;48.432;11.350;2023-02-15T04:21:49;0.50;99.90
47779;DHT22;33538;48.432;11.350;2023-02-15T04:24:17;0.50;99.90
47779;DHT22;33538;48.432;11.350;2023-02-15T04:26:43;0.40;99.90
47779;DHT22;33538;48.432;11.350;2023-02-15T04:29:11;0.40;99.90
47779;DHT22;33538;48.432;11.350;2023-02-15T04:31:38;0.50;99.90
47779;DHT22;33538;48.432;11.350;2023-02-15T04:34:04;0.50;99.90
47779;DHT22;33538;48.432;11.350;2023-02-15T04:36:31;0.50;99.90
47779;DHT22;33538;48.432;11.350;2023-02-15T04:38:59;0.60;99.90
47779;DHT22;33538;48.432;11.350;2023-02-15T04:41:26;0.60;99.90
47779;DHT22;33538;48.432;11.350;2023-02-15T04:43:53;0.60;99.90
47779;DHT22;33538;48.432;11.350;2023-02-15T04:46:19;0.60;99.90
47779;DHT22;33538;48.432;11.350;2023-02-15T04:48:46;0.50;99.90
47779;DHT22;33538;48.432;11.350;2023-02-15T04:51:13;0.50;99.90
47779;DHT22;33538;48.432;11.350;2023-02-15T04:53:40;0.50;99.90
47779;DHT22;33538;48.432;11.350;2023-02-15T04:56:08;0.50;99.90
47779;DHT22;33538;48.432;11.350;2023-02-15T04:58:35;0.50;99.90
47779;DHT22;33538;48.432;11.350;2023-02-15T05:01:02;0.50;99.90
47779;DHT22;33538;48.432;11.350;2023-02-15T05:03:29;0.40;99.90
47779;DHT22;33538;48.432;11.350;2023-02-15T05:05:56;0.40;99.90
47779;DHT22;33538;48.432;11.350;2023-02-15T05:08:22;0.40;99.90
47779;DHT22;33538;48.432;11.350;2023-02-15T05:10:49;0.40;99.90
47779;DHT22;33538;48.432;11.350;2023-02-15T05:13:17;0.40;99.90
47779;DHT22;33538;48.432;11.350;2023-02-15T05:15:47;0.40;99.90
47779;DHT22;33538;48.432;11.350;2023-02-15T05:18:14;0.40;99.90
47779;DHT22;33538;48.432;11.350;2023-02-15T05:20:41;0.40;99.90
47779;DHT22;33538;48.432;11.350;2023-02-15T05:23:08;0.50;99.90
47779;DHT22;33538;48.432;11.350;2023-02-15T05:25:35;0.50;99.90
47779;DHT22;33538;48.432;11.350;2023-02-15T05:28:02;0.40;99.90
47779;DHT22;33538;48.432;11.350;2023-02-15T05:30:32;0.50;99.90
47779;DHT22;33538;48.432;11.350;2023-02-15T05:32:59;0.50;99.90
47779;DHT22;33538;48.432;11.350;2023-02-15T05:35:26;0.50;99.90
47779;DHT22;33538;48.432;11.350;2023-02-15T05:37:52;0.50;99.90
47779;DHT22;33538;48.432;11.350;2023-02-15T05:40:19;0.50;99.90
47779;DHT22;33538;48.432;11.350;2023-02-15T05:42:46;0.50;99.90
47779;DHT22;33538;48.432;11.350;2023-02-15T05:45:13;0.50;99.90
47779;DHT22;33538;48.432;11.350;2023-02-15T05:47:41;0.50;99.90
47779;DHT22;33538;48.432;11.350;2023-02-15T05:50:08;0.50;99.90
47779;DHT22;33538;48.432;11.350;2023-02-15T05:52:35;0.50;99.90
47779;DHT22;33538;48.432;11.350;2023-02-15T05:55:02;0.50;99.90
47779;DHT22;33538;48.432;11.350;2023-02-15T05:57:29;0.50;99.90
47779;DHT22;33538;48.432;11.350;2023-02-15T05:59:56;0.50;99.90
47779;DHT22;33538;48.432;11.350;2023-02-15T06:02:23;0.50;99.90
47779;DHT22;33538;48.432;11.350;2023-02-15T06:04:51;0.50;99.90
47779;DHT22;33538;48.432;11.350;2023-02-15T06:07:17;0.50;99.90
47779;DHT22;33538;48.432;11.350;2023-02-15T06:09:44;0.50;99.90
47779;DHT22;33538;48.432;11.350;2023-02-15T06:12:11;0.50;99.90
47779;DHT22;33538;48.432;11.350;2023-02-15T06:14:38;0.50;99.90
47779;DHT22;33538;48.432;11.350;2023-02-15T06:17:04;0.50;99.90
47779;DHT22;33538;48.432;11.350;2023-02-15T06:19:31;0.50;99.90
47779;DHT22;33538;48.432;11.350;2023-02-15T06:21:59;0.50;99.90
47779;DHT22;33538;48.432;11.350;2023-02-15T06:24:26;0.40;99.90
47779;DHT22;33538;48.432;11.350;2023-02-15T06:26:53;0.40;99.90
47779;DHT22;33538;48.432;11.350;2023-02-15T06:29:20;0.40;99.90
47779;DHT22;33538;48.432;11.350;2023-02-15T06:31:46;0.50;99.90
47779;DHT22;33538;48.432;11.350;2023-02-15T06:34:13;0.60;99.90
47779;DHT22;33538;48.432;11.350;2023-02-15T06:36:41;0.50;99.90
47779;DHT22;33538;48.432;11.350;2023-02-15T06:39:09;0.40;99.90
47779;DHT22;33538;48.432;11.350;2023-02-15T06:41:35;0.50;99.90
47779;DHT22;33538;48.432;11.350;2023-02-15T06:44:02;0.60;99.90
47779;DHT22;33538;48.432;11.350;2023-02-15T06:46:29;0.50;99.90
47779;DHT22;33538;48.432;11.350;2023-02-15T06:48:56;0.50;99.90
47779;DHT22;33538;48.432;11.350;2023-02-15T06:51:23;0.40;99.90
47779;DHT22;33538;48.432;11.350;2023-02-15T06:53:49;0.40;99.90
47779;DHT22;33538;48.432;11.350;2023-02-15T06:56:17;0.40;99.90
47779;DHT22;33538;48.432;11.350;2023-02-15T06:58:44;0.40;99.90
47779;DHT22;33538;48.432;11.350;2023-02-15T07:01:11;0.30;99.90
47779;DHT22;33538;48.432;11.350;2023-02-15T07:03:38;0.40;99.90
47779;DHT22;33538;48.432;11.350;2023-02-15T07:06:05;0.40;99.90
47779;DHT22;33538;48.432;11.350;2023-02-15T07:08:32;0.40;99.90
47779;DHT22;33538;48.432;11.350;2023-02-15T07:10:59;0.40;99.90
47779;DHT22;33538;48.432;11.350;2023-02-15T07:13:27;0.40;99.90
47779;DHT22;33538;48.432;11.350;2023-02-15T07:15:53;0.40;99.90
47779;DHT22;33538;48.432;11.350;2023-02-15T07:18:20;0.40;99.90
47779;DHT22;33538;48.432;11.350;2023-02-15T07:20:47;0.50;99.90
47779;DHT22;33538;48.432;11.350;2023-02-15T07:23:14;0.50;99.90
47779;DHT22;33538;48.432;11.350;2023-02-15T07:25:40;0.50;99.90
47779;DHT22;33538;48.432;11.350;2023-02-15T07:28:07;0.50;99.90
47779;DHT22;33538;48.432;11.350;2023-02-15T07:30:35;0.50;99.90
47779;DHT22;33538;48.432;11.350;2023-02-15T07:33:02;0.50;99.90
47779;DHT22;33538;48.432;11.350;2023-02-15T07:35:31;0.50;99.90
47779;DHT22;33538;48.432;11.350;2023-02-15T07:37:58;0.50;99.90
47779;DHT22;33538;48.432;11.350;2023-02-15T07:40:25;0.40;99.90
47779;DHT22;33538;48.432;11.350;2023-02-15T07:42:52;0.40;99.90
47779;DHT22;33538;48.432;11.350;2023-02-15T07:45:20;0.40;99.90
47779;DHT22;33538;48.432;11.350;2023-02-15T07:47:48;0.40;99.90
47779;DHT22;33538;48.432;11.350;2023-02-15T07:50:15;0.40;99.90
47779;DHT22;33538;48.432;11.350;2023-02-15T07:52:42;0.30;99.90
47779;DHT22;33538;48.432;11.350;2023-02-15T07:55:08;0.40;99.90
47779;DHT22;33538;48.432;11.350;2023-02-15T07:57:35;0.50;99.90
47779;DHT22;33538;48.432;11.350;2023-02-15T08:00:03;0.50;99.90
47779;DHT22;33538;48.432;11.350;2023-02-15T08:02:30;0.50;99.90
47779;DHT22;33538;48.432;11.350;2023-02-15T08:04:58;0.50;99.90
47779;DHT22;33538;48.432;11.350;2023-02-15T08:07:25;0.60;99.90
47779;DHT22;33538;48.432;11.350;2023-02-15T08:09:51;0.60;99.90
47779;DHT22;33538;48.432;11.350;2023-02-15T08:12:18;0.60;99.90
47779;DHT22;33538;48.432;11.350;2023-02-15T08:14:45;0.60;99.90
47779;DHT22;33538;48.432;11.350;2023-02-15T08:17:12;0.60;99.90
47779;DHT22;33538;48.432;11.350;2023-02-15T08:19:38;0.60;99.90
47779;DHT22;33538;48.432;11.350;2023-02-15T08:22:07;0.50;99.90
47779;DHT22;33538;48.432;11.350;2023-02-15T08:24:36;0.50;99.90
47779;DHT22;33538;48.432;11.350;2023-02-15T08:27:04;0.50;99.90
47779;DHT22;33538;48.432;11.350;2023-02-15T08:29:33;0.50;99.90
47779;DHT22;33538;48.432;11.350;2023-02-15T08:32:03;0.50;99.90
47779;DHT22;33538;48.432;11.350;2023-02-15T08:34:31;0.40;99.90
47779;DHT22;33538;48.432;11.350;2023-02-15T08:36:59;0.50;99.90
47779;DHT22;33538;48.432;11.350;2023-02-15T08:39:27;0.50;99.90
47779;DHT22;33538;48.432;11.350;2023-02-15T08:41:54;0.50;99.90
47779;DHT22;33538;48.432;11.350;2023-02-15T08:44:21;0.60;99.90
47779;DHT22;33538;48.432;11.350;2023-02-15T08:46:49;0.60;99.90
47779;DHT22;33538;48.432;11.350;2023-02-15T08:49:18;0.60;99.90
47779;DHT22;33538;48.432;11.350;2023-02-15T08:51:46;0.60;99.90
47779;DHT22;33538;48.432;11.350;2023-02-15T08:54:14;0.60;99.90
47779;DHT22;33538;48.432;11.350;2023-02-15T08:56:44;0.60;99.90
47779;DHT22;33538;48.432;11.350;2023-02-15T08:59:13;0.70;99.90
47779;DHT22;33538;48.432;11.350;2023-02-15T09:01:41;0.70;99.90
47779;DHT22;33538;48.432;11.350;2023-02-15T09:04:08;0.70;99.90
47779;DHT22;33538;48.432;11.350;2023-02-15T09:06:35;0.80;99.90
47779;DHT22;33538;48.432;11.350;2023-02-15T09:09:03;0.70;99.90
47779;DHT22;33538;48.432;11.350;2023-02-15T09:11:32;0.70;99.90
47779;DHT22;33538;48.432;11.350;2023-02-15T09:14:03;0.70;99.90
47779;DHT22;33538;48.432;11.350;2023-02-15T09:16:32;0.70;99.90
47779;DHT22;33538;48.432;11.350;2023-02-15T09:18:59;0.80;99.90
47779;DHT22;33538;48.432;11.350;2023-02-15T09:21:27;0.80;99.90
47779;DHT22;33538;48.432;11.350;2023-02-15T09:23:56;0.70;99.90
47779;DHT22;33538;48.432;11.350;2023-02-15T09:26:24;0.70;99.90
47779;DHT22;33538;48.432;11.350;2023-02-15T09:28:52;0.80;99.90
47779;DHT22;33538;48.432;11.350;2023-02-15T09:31:23;0.70;99.90
47779;DHT22;33538;48.432;11.350;2023-02-15T09:33:50;0.80;99.90
47779;DHT22;33538;48.432;11.350;2023-02-15T09:36:19;0.80;99.90
47779;DHT22;33538;48.432;11.350;2023-02-15T09:38:48;0.90;99.90
47779;DHT22;33538;48.432;11.350;2023-02-15T09:41:30;0.90;99.90
47779;DHT22;33538;48.432;11.350;2023-02-15T09:44:08;0.90;99.90
47779;DHT22;33538;48.432;11.350;2023-02-15T09:46:55;0.90;99.90
47779;DHT22;33538;48.432;11.350;2023-02-15T09:49:32;0.90;99.90
47779;DHT22;33538;48.432;11.350;2023-02-15T09:52:14;0.90;99.90
47779;DHT22;33538;48.432;11.350;2023-02-15T09:54:53;1.00;99.90
47779;DHT22;33538;48.432;11.350;2023-02-15T09:57:29;1.00;99.90
47779;DHT22;33538;48.432;11.350;2023-02-15T10:00:04;1.00;99.90
47779;DHT22;33538;48.432;11.350;2023-02-15T10:02:49;1.00;99.90
47779;DHT22;33538;48.432;11.350;2023-02-15T10:05:25;1.00;99.90
47779;DHT22;33538;48.432;11.350;2023-02-15T10:08:19;1.00;99.90
47779;DHT22;33538;48.432;11.350;2023-02-15T10:10:54;1.10;99.90
47779;DHT22;33538;48.432;11.350;2023-02-15T10:13:29;1.10;99.90
47779;DHT22;33538;48.432;11.350;2023-02-15T10:16:10;1.10;99.90
47779;DHT22;33538;48.432;11.350;2023-02-15T10:18:51;1.10;99.90
47779;DHT22;33538;48.432;11.350;2023-02-15T10:21:28;1.10;99.90
47779;DHT22;33538;48.432;11.350;2023-02-15T10:24:13;1.20;99.90
47779;DHT22;33538;48.432;11.350;2023-02-15T10:26:44;1.20;99.90
47779;DHT22;33538;48.432;11.350;2023-02-15T10:29:18;1.20;99.90
47779;DHT22;33538;48.432;11.350;2023-02-15T10:31:48;1.20;99.90
47779;DHT22;33538;48.432;11.350;2023-02-15T10:34:18;1.20;99.90
47779;DHT22;33538;48.432;11.350;2023-02-15T10:37:17;1.20;99.90
47779;DHT22;33538;48.432;11.350;2023-02-15T10:39:53;1.20;99.90
47779;DHT22;33538;48.432;11.350;2023-02-15T10:42:29;1.10;99.90
47779;DHT22;33538;48.432;11.350;2023-02-15T10:45:08;1.20;99.90
47779;DHT22;33538;48.432;11.350;2023-02-15T10:48:01;1.30;99.90
47779;DHT22;33538;48.432;11.350;2023-02-15T10:50:48;1.30;99.90
47779;DHT22;33538;48.432;11.350;2023-02-15T10:56:20;1.30;99.90
47779;DHT22;33538;48.432;11.350;2023-02-15T10:59:03;1.30;99.90
47779;DHT22;33538;48.432;11.350;2023-02-15T11:01:34;1.30;99.90
47779;DHT22;33538;48.432;11.350;2023-02-15T11:04:22;1.30;99.90
47779;DHT22;33538;48.432;11.350;2023-02-15T11:07:02;1.30;99.90
47779;DHT22;33538;48.432;11.350;2023-02-15T11:09:41;1.30;99.90
47779;DHT22;33538;48.432;11.350;2023-02-15T11:12:13;1.30;99.90
47779;DHT22;33538;48.432;11.350;2023-02-15T11:14:46;1.40;99.90
47779;DHT22;33538;48.432;11.350;2023-02-15T11:17:16;1.40;99.90
47779;DHT22;33538;48.432;11.350;2023-02-15T11:19:56;1.40;99.90
47779;DHT22;33538;48.432;11.350;2023-02-15T11:22:26;1.40;99.90
47779;DHT22;33538;48.432;11.350;2023-02-15T11:24:54;1.40;99.90
47779;DHT22;33538;48.432;11.350;2023-02-15T11:27:22;1.40;99.90
47779;DHT22;33538;48.432;11.350;2023-02-15T11:29:57;1.40;99.90
47779;DHT22;33538;48.432;11.350;2023-02-15T11:32:28;1.40;99.90
47779;DHT22;33538;48.432;11.350;2023-02-15T11:34:59;1.50;99.90
47779;DHT22;33538;48.432;11.350;2023-02-15T11:37:33;1.50;99.90
47779;DHT22;33538;48.432;11.350;2023-02-15T11:40:02;1.50;99.90
47779;DHT22;33538;48.432;11.350;2023-02-15T11:42:31;1.50;99.90
47779;DHT22;33538;48.432;11.350;2023-02-15T11:45:04;1.50;99.90
47779;DHT22;33538;48.432;11.350;2023-02-15T11:47:33;1.50;99.90
47779;DHT22;33538;48.432;11.350;2023-02-15T11:50:00;1.60;99.90
47779;DHT22;33538;48.432;11.350;2023-02-15T11:52:28;1.60;99.90
47779;DHT22;33538;48.432;11.350;2023-02-15T11:54:55;1.60;99.90
47779;DHT22;33538;48.432;11.350;2023-02-15T11:57:25;1.60;99.90
47779;DHT22;33538;48.432;11.350;2023-02-15T11:59:57;1.60;99.90
47779;DHT22;33538;48.432;11.350;2023-02-15T12:02:26;1.60;99.90
47779;DHT22;33538;48.432;11.350;2023-02-15T12:04:55;1.70;99.90
47779;DHT22;33538;48.432;11.350;2023-02-15T12:07:25;1.70;99.90
47779;DHT22;33538;48.432;11.350;2023-02-15T12:10:00;1.70;99.90
47779;DHT22;33538;48.432;11.350;2023-02-15T12:12:30;1.70;99.90
47779;DHT22;33538;48.432;11.350;2023-02-15T12:14:59;1.70;99.90
47779;DHT22;33538;48.432;11.350;2023-02-15T12:17:28;1.70;99.90
47779;DHT22;33538;48.432;11.350;2023-02-15T12:19:57;1.70;99.90
47779;DHT22;33538;48.432;11.350;2023-02-15T12:22:29;1.70;99.90
47779;DHT22;33538;48.432;11.350;2023-02-15T12:25:00;1.80;99.90
47779;DHT22;33538;48.432;11.350;2023-02-15T12:27:29;1.80;99.90
47779;DHT22;33538;48.432;11.350;2023-02-15T12:29:59;1.80;99.90
47779;DHT22;33538;48.432;11.350;2023-02-15T12:32:28;1.80;99.90
47779;DHT22;33538;48.432;11.350;2023-02-15T12:35:01;1.80;99.90
47779;DHT22;33538;48.432;11.350;2023-02-15T12:37:30;1.80;99.90
47779;DHT22;33538;48.432;11.350;2023-02-15T12:40:00;1.80;99.90
47779;DHT22;33538;48.432;11.350;2023-02-15T12:42:40;1.80;99.90
47779;DHT22;33538;48.432;11.350;2023-02-15T12:45:20;1.80;99.90
47779;DHT22;33538;48.432;11.350;2023-02-15T12:47:53;1.80;99.90
47779;DHT22;33538;48.432;11.350;2023-02-15T12:50:34;1.90;99.90
47779;DHT22;33538;48.432;11.350;2023-02-15T12:53:07;1.90;99.90
47779;DHT22;33538;48.432;11.350;2023-02-15T12:55:35;1.90;99.90
47779;DHT22;33538;48.432;11.350;2023-02-15T12:58:06;1.90;99.90
47779;DHT22;33538;48.432;11.350;2023-02-15T13:00:33;1.90;99.90
47779;DHT22;33538;48.432;11.350;2023-02-15T13:03:01;1.90;99.90
47779;DHT22;33538;48.432;11.350;2023-02-15T13:05:31;2.00;99.90
47779;DHT22;33538;48.432;11.350;2023-02-15T13:08:01;2.00;99.90
47779;DHT22;33538;48.432;11.350;2023-02-15T13:10:31;2.00;99.90
47779;DHT22;33538;48.432;11.350;2023-02-15T13:13:01;2.00;99.90
47779;DHT22;33538;48.432;11.350;2023-02-15T13:15:33;2.00;99.90
47779;DHT22;33538;48.432;11.350;2023-02-15T13:18:01;2.10;99.90
47779;DHT22;33538;48.432;11.350;2023-02-15T13:20:29;2.10;99.90
47779;DHT22;33538;48.432;11.350;2023-02-15T13:23:02;2.10;99.90
47779;DHT22;33538;48.432;11.350;2023-02-15T13:25:32;2.10;99.90
47779;DHT22;33538;48.432;11.350;2023-02-15T13:28:03;2.10;99.90
47779;DHT22;33538;48.432;11.350;2023-02-15T13:30:34;2.10;99.90
47779;DHT22;33538;48.432;11.350;2023-02-15T13:33:04;2.20;99.90
47779;DHT22;33538;48.432;11.350;2023-02-15T13:35:38;2.20;99.90
47779;DHT22;33538;48.432;11.350;2023-02-15T13:41:16;2.20;99.90
47779;DHT22;33538;48.432;11.350;2023-02-15T13:43:52;2.20;99.90
47779;DHT22;33538;48.432;11.350;2023-02-15T13:46:34;2.20;99.90
47779;DHT22;33538;48.432;11.350;2023-02-15T13:49:16;2.20;99.90
47779;DHT22;33538;48.432;11.350;2023-02-15T13:51:51;2.20;99.90
47779;DHT22;33538;48.432;11.350;2023-02-15T13:54:43;2.30;99.90
47779;DHT22;33538;48.432;11.350;2023-02-15T13:57:28;2.30;99.90
47779;DHT22;33538;48.432;11.350;2023-02-15T14:00:14;2.30;99.90
47779;DHT22;33538;48.432;11.350;2023-02-15T14:05:49;2.30;99.90
47779;DHT22;33538;48.432;11.350;2023-02-15T14:08:25;2.30;99.90
47779;DHT22;33538;48.432;11.350;2023-02-15T14:10:57;2.30;99.90
47779;DHT22;33538;48.432;11.350;2023-02-15T14:13:48;2.30;99.90
47779;DHT22;33538;48.432;11.350;2023-02-15T14:16:27;2.40;99.90
47779;DHT22;33538;48.432;11.350;2023-02-15T14:19:03;2.40;99.90
47779;DHT22;33538;48.432;11.350;2023-02-15T14:21:40;2.40;99.90
47779;DHT22;33538;48.432;11.350;2023-02-15T14:24:18;2.40;99.90
47779;DHT22;33538;48.432;11.350;2023-02-15T14:26:52;2.40;99.90
47779;DHT22;33538;48.432;11.350;2023-02-15T14:29:28;2.40;99.90
47779;DHT22;33538;48.432;11.350;2023-02-15T14:32:05;2.40;99.90
47779;DHT22;33538;48.432;11.350;2023-02-15T14:34:42;2.40;99.90
47779;DHT22;33538;48.432;11.350;2023-02-15T14:37:11;2.50;99.90
47779;DHT22;33538;48.432;11.350;2023-02-15T14:39:44;2.40;99.90
47779;DHT22;33538;48.432;11.350;2023-02-15T14:42:18;2.50;99.90
47779;DHT22;33538;48.432;11.350;2023-02-15T14:44:49;2.50;99.90
47779;DHT22;33538;48.432;11.350;2023-02-15T14:47:25;2.50;99.90
47779;DHT22;33538;48.432;11.350;2023-02-15T14:49:53;2.50;99.90
47779;DHT22;33538;48.432;11.350;2023-02-15T14:52:20;2.50;99.90
47779;DHT22;33538;48.432;11.350;2023-02-15T14:54:57;2.50;99.90
47779;DHT22;33538;48.432;11.350;2023-02-15T14:57:26;2.50;99.90
47779;DHT22;33538;48.432;11.350;2023-02-15T14:59:55;2.50;99.90
47779;DHT22;33538;48.432;11.350;2023-02-15T15:02:29;2.50;99.90
47779;DHT22;33538;48.432;11.350;2023-02-15T15:05:07;2.50;99.90
47779;DHT22;33538;48.432;11.350;2023-02-15T15:07:43;2.50;99.90
47779;DHT22;33538;48.432;11.350;2023-02-15T15:10:36;2.50;99.90
47779;DHT22;33538;48.432;11.350;2023-02-15T15:13:36;2.50;99.90
47779;DHT22;33538;48.432;11.350;2023-02-15T15:22:32;2.50;99.90
47779;DHT22;33538;48.432;11.350;2023-02-15T15:25:00;2.50;99.90
47779;DHT22;33538;48.432;11.350;2023-02-15T15:27:44;2.50;99.90
47779;DHT22;33538;48.432;11.350;2023-02-15T15:33:42;2.50;99.90
47779;DHT22;33538;48.432;11.350;2023-02-15T15:39:18;2.50;99.90
47779;DHT22;33538;48.432;11.350;2023-02-15T15:41:48;2.50;99.90
47779;DHT22;33538;48.432;11.350;2023-02-15T15:44:54;2.50;99.90
47779;DHT22;33538;48.432;11.350;2023-02-15T15:47:36;2.50;99.90
47779;DHT22;33538;48.432;11.350;2023-02-15T15:50:12;2.50;99.90
47779;DHT22;33538;48.432;11.350;2023-02-15T15:52:41;2.50;99.90
47779;DHT22;33538;48.432;11.350;2023-02-15T15:55:18;2.50;99.90
47779;DHT22;33538;48.432;11.350;2023-02-15T15:57:47;2.50;99.90
47779;DHT22;33538;48.432;11.350;2023-02-15T16:00:31;2.50;99.90
47779;DHT22;33538;48.432;11.350;2023-02-15T16:02:59;2.60;99.90
47779;DHT22;33538;48.432;11.350;2023-02-15T16:05:26;2.60;99.90
47779;DHT22;33538;48.432;11.350;2023-02-15T16:07:53;2.50;99.90
47779;DHT22;33538;48.432;11.350;2023-02-15T16:10:23;2.50;99.90
47779;DHT22;33538;48.432;11.350;2023-02-15T16:12:51;2.50;99.90
47779;DHT22;33538;48.432;11.350;2023-02-15T16:15:20;2.50;99.90
47779;DHT22;33538;48.432;11.350;2023-02-15T16:17:50;2.50;99.90
47779;DHT22;33538;48.432;11.350;2023-02-15T16:20:21;2.50;99.90